Time;durP1;ratioP1;P1;durP2;ratioP2;P2;SDS_P1;SDS_P2;PMS_P1;PMS_P2;Temp;Humidity;BMP_temperature;BMP_pressure;BME280_temperature;BME280_humidity;BME280_pressure;Samples;Min_cycle;Max_cycle;Signal;HPM_P1;HPM_P2
2023/01/10 00:00:40;;;;;;;30.80;18.70;;;;;;;6.99;88.97;99232.46;131082;1252;107403;-75
2023/01/10 00:04:03;;;;;;;28.80;19.20;;;;;;;6.98;89.11;99234.80;131081;1252;107524;-73
2023/01/10 00:07:08;;;;;;;28.20;20.10;;;;;;;6.95;89.17;99235.12;131084;1253;107350;-73
2023/01/10 00:10:14;;;;;;;27.50;18.60;;;;;;;6.87;89.04;99233.60;131258;1251;107475;-73
2023/01/10 00:13:25;;;;;;;32.00;16.60;;;;;;;6.78;89.00;99236.35;131346;1252;107511;-73
2023/01/10 00:16:31;;;;;;;22.70;15.10;;;;;;;6.78;89.32;99237.41;131342;1255;106374;-73
2023/01/10 00:19:36;;;;;;;25.20;16.60;;;;;;;6.77;89.15;99246.02;131364;1252;106466;-73
2023/01/10 00:22:42;;;;;;;24.20;16.20;;;;;;;6.78;89.22;99245.84;131377;1252;108709;-73
2023/01/10 00:25:48;;;;;;;26.90;16.70;;;;;;;6.87;89.21;99251.86;131395;1248;107412;-73
2023/01/10 00:28:54;;;;;;;24.00;16.20;;;;;;;6.91;88.73;99250.04;131303;1250;106512;-73
2023/01/10 00:32:00;;;;;;;26.50;17.30;;;;;;;6.88;88.47;99245.39;131391;1252;106252;-73
2023/01/10 00:35:07;;;;;;;18.90;13.00;;;;;;;6.88;89.02;99250.67;131364;1250;106290;-72
2023/01/10 00:38:12;;;;;;;22.80;13.80;;;;;;;6.91;88.87;99253.61;131378;1252;106536;-73
2023/01/10 00:44:37;;;;;;;23.70;15.30;;;;;;;6.91;88.93;99257.47;131292;1252;107554;-73
2023/01/10 00:47:43;;;;;;;34.90;21.20;;;;;;;6.98;88.73;99264.35;131327;1252;106533;-73
2023/01/10 00:50:48;;;;;;;25.40;16.80;;;;;;;7.05;88.83;99273.23;131131;1252;107491;-72
2023/01/10 00:53:54;;;;;;;36.20;18.80;;;;;;;7.05;88.62;99275.54;131404;1253;107592;-73
2023/01/10 00:56:59;;;;;;;26.40;15.30;;;;;;;7.06;88.42;99286.16;131289;1252;107517;-72
2023/01/10 01:00:08;;;;;;;25.10;14.90;;;;;;;7.06;88.74;99291.43;131334;1254;107548;-73
2023/01/10 01:03:14;;;;;;;26.20;15.50;;;;;;;7.07;88.58;99298.08;131300;1252;107488;-73
2023/01/10 01:06:20;;;;;;;26.00;15.70;;;;;;;7.09;88.40;99306.56;131069;1252;107662;-73
2023/01/10 01:09:26;;;;;;;21.70;16.10;;;;;;;7.09;88.21;99310.15;131168;1253;107622;-73
2023/01/10 01:12:31;;;;;;;23.40;15.80;;;;;;;7.03;88.12;99314.25;131054;1252;106496;-73
2023/01/10 01:15:37;;;;;;;23.80;16.40;;;;;;;6.98;88.24;99320.70;131098;1250;107533;-73
2023/01/10 01:18:43;;;;;;;24.00;15.70;;;;;;;6.90;88.40;99325.28;131156;1251;107395;-73
2023/01/10 01:21:48;;;;;;;23.10;14.60;;;;;;;6.87;88.22;99330.38;131039;1252;108638;-72
2023/01/10 01:24:54;;;;;;;29.40;17.80;;;;;;;6.87;88.41;99339.17;131103;1252;107540;-73
2023/01/10 01:27:59;;;;;;;24.90;15.70;;;;;;;6.86;88.15;99346.33;131279;1253;109241;-72
2023/01/10 01:31:10;;;;;;;21.90;14.80;;;;;;;6.76;88.02;99344.14;131381;1248;107476;-73
2023/01/10 01:34:15;;;;;;;24.30;16.70;;;;;;;6.68;88.09;99343.99;131118;1253;107446;-73
2023/01/10 01:37:20;;;;;;;30.90;19.90;;;;;;;6.65;88.28;99345.73;131373;1252;107495;-73
2023/01/10 01:40:26;;;;;;;27.30;18.80;;;;;;;6.57;88.18;99346.06;131378;1264;107245;-72
2023/01/10 01:43:46;;;;;;;24.90;15.10;;;;;;;6.55;88.50;99356.78;131307;1253;107560;-73
2023/01/10 01:46:57;;;;;;;27.90;17.40;;;;;;;6.59;88.55;99350.27;131153;1253;108489;-73
2023/01/10 01:50:04;;;;;;;28.20;16.00;;;;;;;6.60;88.65;99345.38;131133;1252;107387;-72
2023/01/10 01:53:13;;;;;;;25.20;16.00;;;;;;;6.61;88.40;99344.86;131253;1252;107438;-73
2023/01/10 01:56:23;;;;;;;22.60;14.90;;;;;;;6.65;88.39;99346.95;131371;1248;107497;-73
2023/01/10 01:59:32;;;;;;;28.10;18.00;;;;;;;6.64;88.07;99349.91;131347;1251;107522;-73
2023/01/10 02:02:42;;;;;;;32.20;19.90;;;;;;;6.59;88.26;99349.58;131229;1250;107502;-72
2023/01/10 02:05:48;;;;;;;29.20;18.40;;;;;;;6.53;88.10;99352.45;131193;1250;107443;-73
2023/01/10 02:08:59;;;;;;;24.40;15.10;;;;;;;6.44;88.03;99350.41;131086;1257;107526;-73
2023/01/10 02:12:05;;;;;;;24.50;15.80;;;;;;;6.35;87.95;99355.23;131134;1253;107404;-73
2023/01/10 02:15:13;;;;;;;27.20;18.00;;;;;;;6.28;88.02;99354.80;131346;1250;107512;-73
2023/01/10 02:18:19;;;;;;;25.40;16.90;;;;;;;6.21;87.95;99358.81;131166;1248;107501;-73
2023/01/10 02:21:55;;;;;;;25.70;16.60;;;;;;;6.20;88.08;99362.84;131121;1252;107487;-73
2023/01/10 02:25:21;;;;;;;23.90;16.40;;;;;;;6.20;87.76;99363.02;131321;1253;107476;-73
2023/01/10 02:28:48;;;;;;;25.10;18.10;;;;;;;6.18;88.01;99372.33;131329;1253;107236;-72
2023/01/10 02:32:11;;;;;;;28.80;16.90;;;;;;;6.16;87.89;99377.91;131341;1252;108644;-73
2023/01/10 02:35:34;;;;;;;25.00;16.30;;;;;;;6.10;87.73;99384.80;131293;1253;107315;-73
2023/01/10 02:38:49;;;;;;;25.10;15.90;;;;;;;6.03;87.99;99382.13;131348;1252;107530;-73
2023/01/10 02:42:01;;;;;;;24.70;16.20;;;;;;;6.05;88.27;99383.35;131071;1253;108653;-73
2023/01/10 02:45:14;;;;;;;31.80;20.90;;;;;;;6.12;87.94;99382.67;131190;1252;107493;-72
2023/01/10 02:48:21;;;;;;;30.90;21.00;;;;;;;6.08;88.10;99387.02;131164;1252;111862;-72
2023/01/10 02:51:28;;;;;;;28.10;18.80;;;;;;;6.08;87.90;99388.31;131278;1252;107523;-72
2023/01/10 02:54:33;;;;;;;31.80;20.90;;;;;;;6.08;87.87;99386.03;131186;1252;107525;-72
2023/01/10 02:57:50;;;;;;;25.40;16.20;;;;;;;5.99;88.11;99385.29;131274;1250;107487;-72
2023/01/10 03:01:05;;;;;;;27.60;17.50;;;;;;;5.89;88.10;99385.50;131346;1250;106712;-72
2023/01/10 03:04:24;;;;;;;25.20;16.60;;;;;;;5.83;88.01;99388.15;131268;1253;107370;-72
2023/01/10 03:07:38;;;;;;;34.70;21.10;;;;;;;5.79;88.02;99390.83;131217;1250;106590;-72
2023/01/10 03:10:47;;;;;;;28.90;18.50;;;;;;;5.74;88.24;99391.66;131391;1252;106465;-72
2023/01/10 03:13:57;;;;;;;35.90;21.10;;;;;;;5.66;88.26;99391.87;131481;1248;107371;-72
2023/01/10 03:17:07;;;;;;;32.50;19.60;;;;;;;5.57;88.30;99395.73;131498;1252;107232;-72
2023/01/10 03:20:14;;;;;;;27.60;16.80;;;;;;;5.47;88.68;99399.93;131467;1252;107512;-72
2023/01/10 03:23:22;;;;;;;26.90;15.50;;;;;;;5.40;88.75;99403.25;131475;1253;107342;-72
2023/01/10 03:26:35;;;;;;;27.40;15.80;;;;;;;5.37;89.03;99403.67;131437;1254;107576;-71
2023/01/10 03:29:46;;;;;;;28.80;17.20;;;;;;;5.35;88.90;99408.86;131197;1253;107567;-72
2023/01/10 03:32:53;;;;;;;27.10;17.10;;;;;;;5.32;88.91;99410.49;131280;1255;107275;-72
2023/01/10 03:36:09;;;;;;;26.40;17.90;;;;;;;5.27;88.82;99409.52;131382;1253;107473;-72
2023/01/10 03:39:20;;;;;;;27.20;17.90;;;;;;;5.23;89.12;99416.65;131366;1252;107530;-74
2023/01/10 03:44:42;;;;;;;27.00;15.70;;;;;;;5.19;89.12;99422.88;131230;1253;107436;-71
2023/01/10 03:46:06;;;;;;;35.60;20.30;;;;;;;5.17;89.47;99431.63;131486;1252;107424;-72
2023/01/10 03:49:15;;;;;;;27.00;16.70;;;;;;;5.15;89.34;99427.27;131209;1252;107645;-72
2023/01/10 03:52:22;;;;;;;28.50;18.00;;;;;;;5.16;89.55;99432.06;131316;1252;107480;-72
2023/01/10 03:55:29;;;;;;;29.20;18.30;;;;;;;5.15;89.48;99433.91;131262;1261;108627;-72
2023/01/10 03:58:35;;;;;;;31.00;18.80;;;;;;;5.11;89.62;99435.13;131085;1252;107578;-72
2023/01/10 04:01:40;;;;;;;30.30;17.20;;;;;;;5.07;89.78;99434.64;131167;1252;107689;-76
2023/01/10 04:04:46;;;;;;;31.00;19.30;;;;;;;5.05;89.53;99442.36;131498;1253;107616;-77
2023/01/10 04:07:52;;;;;;;27.90;18.50;;;;;;;5.05;90.23;99452.60;131175;1250;107458;-77
2023/01/10 04:10:58;;;;;;;30.50;18.90;;;;;;;5.03;90.45;99461.91;131344;1250;107338;-76
2023/01/10 04:14:03;;;;;;;32.30;20.10;;;;;;;5.04;90.28;99469.63;131372;1252;106676;-76
2023/01/10 04:17:09;;;;;;;31.90;20.00;;;;;;;5.03;90.62;99478.72;131265;1252;107635;-76
2023/01/10 04:20:15;;;;;;;31.30;19.10;;;;;;;5.01;90.58;99484.89;131133;1252;107576;-76
2023/01/10 04:23:20;;;;;;;34.00;19.40;;;;;;;5.01;90.45;99486.96;131366;1252;107268;-76
2023/01/10 04:26:26;;;;;;;35.20;20.40;;;;;;;5.03;90.71;99493.13;131318;1252;106511;-75
2023/01/10 04:29:31;;;;;;;41.70;23.10;;;;;;;4.99;90.78;99504.09;131362;1252;107512;-76
2023/01/10 04:32:37;;;;;;;34.20;21.60;;;;;;;4.95;90.78;99508.64;131220;1250;107468;-78
2023/01/10 04:35:48;;;;;;;39.30;24.70;;;;;;;4.97;90.85;99513.66;131172;1263;107290;-76
2023/01/10 04:38:54;;;;;;;47.70;26.90;;;;;;;4.95;90.82;99522.84;131437;1261;107700;-76
2023/01/10 04:41:59;;;;;;;40.80;24.00;;;;;;;4.93;91.18;99525.94;131345;1260;107528;-76
2023/01/10 04:45:06;;;;;;;47.50;25.40;;;;;;;4.93;90.82;99530.20;131270;1253;107589;-77
2023/01/10 04:48:12;;;;;;;41.50;23.10;;;;;;;4.97;90.73;99540.59;131365;1253;107441;-76
2023/01/10 04:51:17;;;;;;;43.50;28.80;;;;;;;4.99;90.77;99550.64;131219;1252;107445;-77
2023/01/10 04:54:24;;;;;;;41.20;26.10;;;;;;;4.97;90.76;99552.53;131192;1253;106956;-76
2023/01/10 04:57:29;;;;;;;39.90;23.00;;;;;;;4.95;90.79;99558.59;131241;1256;107212;-77
2023/01/10 05:00:35;;;;;;;38.20;21.70;;;;;;;4.85;91.09;99563.51;131207;1253;107504;-76
2023/01/10 05:03:40;;;;;;;58.00;36.50;;;;;;;4.81;91.03;99569.16;131074;1253;107471;-77
2023/01/10 05:06:46;;;;;;;54.90;35.30;;;;;;;4.87;91.11;99576.90;131086;1251;106455;-77
2023/01/10 05:09:51;;;;;;;47.70;31.60;;;;;;;4.92;91.04;99579.63;131109;1250;107518;-77
2023/01/10 05:12:57;;;;;;;61.90;35.50;;;;;;;4.93;90.85;99595.02;131178;1253;107474;-76
2023/01/10 05:16:02;;;;;;;74.60;41.60;;;;;;;4.90;90.93;99598.81;131347;1261;107511;-76
2023/01/10 05:19:08;;;;;;;38.60;22.40;;;;;;;4.89;90.92;99603.98;131177;1254;107522;-77
2023/01/10 05:22:14;;;;;;;42.40;23.30;;;;;;;4.83;90.96;99604.73;131351;1253;107457;-76
2023/01/10 05:25:19;;;;;;;40.80;22.90;;;;;;;4.82;90.91;99609.73;131196;1252;107384;-77
2023/01/10 05:28:25;;;;;;;40.60;24.00;;;;;;;4.85;90.96;99614.17;131260;1252;106985;-77
2023/01/10 05:31:30;;;;;;;53.80;29.60;;;;;;;4.86;91.25;99617.33;131275;1250;107552;-77
2023/01/10 05:34:36;;;;;;;41.50;23.70;;;;;;;4.75;91.34;99621.59;131218;1252;107421;-76
2023/01/10 05:37:41;;;;;;;39.90;22.40;;;;;;;4.68;91.32;99628.89;131072;1254;107584;-76
2023/01/10 05:40:47;;;;;;;44.60;24.10;;;;;;;4.68;91.39;99632.79;131430;1253;107295;-78
2023/01/10 05:43:53;;;;;;;42.70;24.90;;;;;;;4.69;91.62;99640.80;131146;1253;107223;-77
2023/01/10 05:46:59;;;;;;;44.40;25.00;;;;;;;4.69;91.31;99647.69;131077;1253;107698;-76
2023/01/10 05:50:05;;;;;;;45.40;25.80;;;;;;;4.69;91.37;99651.69;131087;1252;106512;-76
2023/01/10 05:53:11;;;;;;;46.40;25.00;;;;;;;4.67;91.59;99656.11;131079;1254;107645;-77
2023/01/10 05:56:17;;;;;;;41.40;22.80;;;;;;;4.65;91.47;99660.27;131183;1253;105651;-76
2023/01/10 05:59:22;;;;;;;43.30;24.20;;;;;;;4.72;91.33;99667.86;131058;1251;106788;-78
2023/01/10 06:02:28;;;;;;;44.70;24.80;;;;;;;4.75;91.34;99676.79;131110;1258;107513;-77
2023/01/10 06:05:33;;;;;;;47.50;28.10;;;;;;;4.78;91.13;99680.23;131138;1253;107595;-77
2023/01/10 06:08:39;;;;;;;48.30;25.90;;;;;;;4.81;91.12;99687.87;131286;1261;106712;-77
2023/01/10 06:11:45;;;;;;;44.90;26.40;;;;;;;4.82;90.96;99692.25;131383;1248;107378;-76
2023/01/10 06:14:50;;;;;;;42.50;23.20;;;;;;;4.86;91.22;99701.39;131043;1252;107519;-76
2023/01/10 06:17:56;;;;;;;43.10;22.60;;;;;;;4.89;90.93;99709.95;131198;1252;106673;-77
2023/01/10 06:21:01;;;;;;;42.90;23.90;;;;;;;4.90;90.98;99718.61;131335;1258;107496;-76
2023/01/10 06:24:08;;;;;;;43.00;24.80;;;;;;;4.93;90.88;99722.45;131470;1257;106459;-76
2023/01/10 06:27:14;;;;;;;44.70;25.80;;;;;;;4.91;90.64;99726.99;131554;1252;105591;-77
2023/01/10 06:30:20;;;;;;;46.50;26.60;;;;;;;4.88;90.59;99728.16;131267;1253;107484;-76
2023/01/10 06:33:26;;;;;;;57.70;31.70;;;;;;;4.81;90.74;99728.77;131163;1259;107343;-76
2023/01/10 06:36:31;;;;;;;45.60;23.60;;;;;;;4.77;90.79;99733.19;131143;1261;108503;-76
2023/01/10 06:39:38;;;;;;;43.90;23.60;;;;;;;4.74;90.79;99740.29;131105;1254;107261;-76
2023/01/10 06:42:44;;;;;;;42.00;23.30;;;;;;;4.70;90.85;99747.27;131330;1252;107455;-76
2023/01/10 06:45:49;;;;;;;41.60;23.90;;;;;;;4.73;90.77;99749.50;131338;1252;108790;-76
2023/01/10 06:48:55;;;;;;;41.00;25.10;;;;;;;4.73;90.68;99748.83;131361;1249;107543;-76
2023/01/10 06:52:00;;;;;;;41.30;24.10;;;;;;;4.67;90.48;99750.48;131069;1261;107557;-77
2023/01/10 06:55:07;;;;;;;43.00;24.40;;;;;;;4.59;90.55;99752.77;131118;1253;107456;-76
2023/01/10 06:58:17;;;;;;;41.10;21.50;;;;;;;4.49;90.66;99760.27;131340;1262;107465;-76
2023/01/10 07:01:23;;;;;;;45.10;24.30;;;;;;;4.44;90.97;99769.31;131341;1253;107463;-76
2023/01/10 07:04:28;;;;;;;45.20;23.60;;;;;;;4.42;91.17;99774.61;131126;1254;107550;-76
2023/01/10 07:07:34;;;;;;;46.60;26.20;;;;;;;4.42;91.17;99780.45;131073;1253;107555;-76
2023/01/10 07:10:42;;;;;;;44.20;25.10;;;;;;;4.40;91.40;99785.71;131195;1248;107218;-77
2023/01/10 07:13:47;;;;;;;43.30;24.80;;;;;;;4.36;91.41;99792.23;131123;1253;107576;-77
2023/01/10 07:16:53;;;;;;;46.10;23.70;;;;;;;4.31;91.45;99795.77;131084;1253;107228;-77
2023/01/10 07:19:59;;;;;;;38.80;21.10;;;;;;;4.26;91.66;99796.52;131168;1261;108734;-78
2023/01/10 07:23:04;;;;;;;39.80;21.40;;;;;;;4.25;91.84;99801.33;131127;1248;107198;-77
2023/01/10 07:26:16;;;;;;;41.80;23.10;;;;;;;4.25;91.80;99801.53;131217;1252;107592;-77
2023/01/10 07:29:22;;;;;;;39.50;23.40;;;;;;;4.25;91.93;99808.23;131102;1261;107441;-77
2023/01/10 07:32:28;;;;;;;44.90;24.80;;;;;;;4.21;91.85;99806.02;131077;1263;107532;-77
2023/01/10 07:35:33;;;;;;;41.30;21.30;;;;;;;4.15;92.33;99805.70;131063;1261;107521;-78
2023/01/10 07:38:39;;;;;;;46.80;23.80;;;;;;;4.05;92.72;99810.66;131099;1259;107382;-77
2023/01/10 07:41:46;;;;;;;43.30;24.10;;;;;;;4.03;92.58;99810.00;131254;1252;109253;-77
2023/01/10 07:44:54;;;;;;;65.30;31.90;;;;;;;4.03;92.96;99807.14;131269;1259;108519;-77
2023/01/10 07:48:00;;;;;;;45.70;25.20;;;;;;;4.00;93.27;99810.20;131307;1261;107518;-77
2023/01/10 07:51:07;;;;;;;48.20;26.00;;;;;;;3.97;93.18;99814.17;131066;1258;108656;-77
2023/01/10 07:54:12;;;;;;;49.00;26.20;;;;;;;3.97;93.37;99819.08;131186;1263;107579;-76
2023/01/10 07:57:18;;;;;;;50.00;27.90;;;;;;;3.95;93.18;99820.80;131176;1254;107496;-76
2023/01/10 08:00:24;;;;;;;48.40;25.90;;;;;;;3.96;93.50;99827.94;131141;1258;108473;-76
2023/01/10 08:03:31;;;;;;;49.30;28.20;;;;;;;3.99;93.28;99836.02;131176;1253;107479;-77
2023/01/10 08:06:37;;;;;;;51.00;27.10;;;;;;;3.96;93.56;99835.73;131125;1261;108498;-76
2023/01/10 08:09:43;;;;;;;57.70;29.50;;;;;;;3.96;93.50;99833.45;131139;1253;107500;-77
2023/01/10 08:12:49;;;;;;;48.60;26.90;;;;;;;3.99;93.61;99839.15;131218;1253;107530;-77
2023/01/10 08:15:55;;;;;;;50.90;28.00;;;;;;;4.05;93.43;99839.37;131045;1253;107637;-77
2023/01/10 08:19:00;;;;;;;46.50;24.70;;;;;;;4.10;93.38;99843.90;131064;1258;107474;-78
2023/01/10 08:22:06;;;;;;;79.80;46.60;;;;;;;4.14;93.33;99840.63;131077;1252;107362;-77
2023/01/10 08:25:12;;;;;;;92.10;55.60;;;;;;;4.17;93.22;99844.73;131115;1253;107432;-77
2023/01/10 08:28:17;;;;;;;42.70;22.80;;;;;;;4.24;93.27;99847.55;131295;1253;107374;-77
2023/01/10 08:31:23;;;;;;;52.30;30.20;;;;;;;4.29;93.16;99852.40;131114;1263;107505;-77
2023/01/10 08:34:29;;;;;;;44.90;24.50;;;;;;;4.33;93.22;99858.48;131101;1253;108546;-77
2023/01/10 08:37:34;;;;;;;48.30;26.90;;;;;;;4.34;93.15;99868.43;131258;1253;108589;-77
2023/01/10 08:40:40;;;;;;;47.90;25.80;;;;;;;4.31;93.20;99871.84;131379;1253;106518;-78
2023/01/10 08:43:48;;;;;;;42.40;22.50;;;;;;;4.26;93.24;99878.58;131283;1261;107511;-77
2023/01/10 08:46:55;;;;;;;47.80;26.30;;;;;;;4.21;93.28;99883.52;131357;1255;107538;-77
2023/01/10 08:50:01;;;;;;;48.80;27.10;;;;;;;4.20;93.43;99886.95;131366;1248;107473;-77
2023/01/10 08:53:07;;;;;;;46.60;25.30;;;;;;;4.26;93.43;99896.19;131377;1255;107363;-77
2023/01/10 08:56:12;;;;;;;53.00;29.00;;;;;;;4.35;93.39;99894.19;131344;1262;106680;-78
2023/01/10 08:59:18;;;;;;;47.80;24.70;;;;;;;4.42;93.24;99891.25;131081;1253;107386;-77
2023/01/10 09:02:24;;;;;;;46.00;23.40;;;;;;;4.41;93.14;99894.09;131080;1253;107525;-77
2023/01/10 09:05:29;;;;;;;45.60;22.80;;;;;;;4.40;93.07;99891.92;131079;1258;107158;-77
2023/01/10 09:08:35;;;;;;;46.10;24.50;;;;;;;4.42;93.22;99900.38;131087;1253;107506;-77
2023/01/10 09:11:41;;;;;;;56.10;30.40;;;;;;;4.38;93.20;99900.66;131065;1255;107544;-77
2023/01/10 09:14:48;;;;;;;51.10;27.20;;;;;;;4.39;93.24;99900.96;131157;1254;107415;-78
2023/01/10 09:17:56;;;;;;;55.70;31.70;;;;;;;4.37;93.46;99902.71;131124;1248;107357;-78
2023/01/10 09:21:02;;;;;;;48.40;23.50;;;;;;;4.33;93.45;99907.60;131103;1262;107492;-77
2023/01/10 09:24:08;;;;;;;47.40;24.80;;;;;;;4.30;93.45;99910.77;131172;1254;107523;-77
2023/01/10 09:27:14;;;;;;;50.00;24.50;;;;;;;4.34;93.53;99909.77;131057;1263;107538;-77
2023/01/10 09:30:20;;;;;;;51.10;27.20;;;;;;;4.40;93.49;99909.48;131076;1247;108370;-77
2023/01/10 09:33:25;;;;;;;45.10;23.90;;;;;;;4.47;93.25;99915.12;131167;1252;106840;-77
2023/01/10 09:36:31;;;;;;;41.90;22.30;;;;;;;4.55;92.95;99918.52;131092;1253;107415;-76
2023/01/10 09:39:37;;;;;;;43.40;22.60;;;;;;;4.62;93.02;99918.27;131116;1263;107525;-77
2023/01/10 09:43:00;;;;;;;45.80;23.10;;;;;;;4.72;92.71;99925.30;131078;1254;108644;-77
2023/01/10 09:46:13;;;;;;;41.20;22.80;;;;;;;4.80;92.64;99920.60;131100;1266;106307;-77
2023/01/10 09:49:31;;;;;;;45.50;23.80;;;;;;;4.79;92.17;99923.64;131174;1252;107537;-77
2023/01/10 09:52:41;;;;;;;46.50;24.40;;;;;;;4.82;92.27;99924.48;131083;1253;108593;-77
2023/01/10 09:55:52;;;;;;;58.10;27.80;;;;;;;4.87;92.48;99924.58;131126;1252;106512;-77
2023/01/10 09:58:59;;;;;;;64.80;32.20;;;;;;;4.93;92.43;99929.94;131075;1254;107426;-77
2023/01/10 10:02:19;;;;;;;45.50;23.80;;;;;;;4.94;92.03;99932.13;131193;1252;107433;-77
2023/01/10 10:05:26;;;;;;;51.70;27.50;;;;;;;4.93;92.05;99931.36;131172;1249;107564;-77
2023/01/10 10:08:31;;;;;;;44.10;23.30;;;;;;;5.02;92.19;99930.97;131157;1257;107537;-77
2023/01/10 10:11:50;;;;;;;56.50;32.10;;;;;;;5.06;91.92;99936.25;131231;1253;106655;-77
2023/01/10 10:15:11;;;;;;;45.50;25.40;;;;;;;5.06;91.75;99937.69;131408;1254;107582;-76
2023/01/10 10:18:31;;;;;;;45.40;24.50;;;;;;;5.00;91.83;99936.04;131436;1263;107348;-77
2023/01/10 10:21:46;;;;;;;40.00;21.10;;;;;;;5.02;91.80;99939.97;131262;1263;107491;-77
2023/01/10 10:25:04;;;;;;;42.90;22.60;;;;;;;5.07;91.57;99943.77;131106;1248;107437;-77
2023/01/10 10:28:32;;;;;;;50.30;26.80;;;;;;;5.18;91.97;99950.77;131081;1248;107661;-77
2023/01/10 10:32:02;;;;;;;45.80;23.90;;;;;;;5.29;91.54;99951.80;131121;1254;107466;-77
2023/01/10 10:35:14;;;;;;;44.70;25.10;;;;;;;5.30;91.20;99947.66;131129;1254;107501;-77
2023/01/10 10:38:24;;;;;;;52.90;28.30;;;;;;;5.27;90.93;99950.23;131115;1252;108596;-77
2023/01/10 10:41:36;;;;;;;37.80;21.30;;;;;;;5.24;91.19;99952.04;131180;1252;108649;-77
2023/01/10 10:44:46;;;;;;;38.30;21.10;;;;;;;5.28;91.37;99956.86;131346;1248;107555;-77
2023/01/10 10:47:57;;;;;;;39.40;22.20;;;;;;;5.32;90.98;99967.09;131398;1264;107483;-77
2023/01/10 10:51:09;;;;;;;40.00;22.60;;;;;;;5.33;91.03;99969.85;131399;1248;107503;-78
2023/01/10 10:54:15;;;;;;;41.40;22.70;;;;;;;5.37;91.09;99971.26;131389;1248;107496;-77
2023/01/10 10:57:24;;;;;;;39.30;23.20;;;;;;;5.44;91.12;99979.00;131116;1254;107575;-77
2023/01/10 11:00:30;;;;;;;41.70;24.30;;;;;;;5.40;90.78;99975.23;131125;1254;107502;-77
2023/01/10 11:03:44;;;;;;;39.00;21.30;;;;;;;5.39;90.53;99976.09;131185;1261;106675;-77
2023/01/10 11:06:51;;;;;;;37.90;20.40;;;;;;;5.31;89.96;99976.73;131189;1254;107375;-77
2023/01/10 11:10:15;;;;;;;39.60;22.40;;;;;;;5.24;90.17;99977.78;131232;1248;107541;-78
2023/01/10 11:13:29;;;;;;;37.50;21.70;;;;;;;5.22;90.16;99981.19;131142;1253;107667;-77
2023/01/10 11:16:38;;;;;;;38.10;22.50;;;;;;;5.22;90.27;99989.23;131174;1258;107523;-72
2023/01/10 11:19:57;;;;;;;41.90;23.30;;;;;;;5.23;90.62;99991.71;131114;1254;107559;-72
2023/01/10 11:23:03;;;;;;;34.50;18.70;;;;;;;5.25;90.67;99997.30;131157;1252;107524;-71
2023/01/10 11:26:23;;;;;;;46.70;26.40;;;;;;;5.26;90.24;99994.39;131246;1253;107645;-72
2023/01/10 11:29:36;;;;;;;39.70;22.80;;;;;;;5.30;90.42;100000.10;131200;1258;107515;-72
2023/01/10 11:32:52;;;;;;;39.00;22.50;;;;;;;5.36;90.24;100004.16;131121;1247;107664;-72
2023/01/10 11:36:03;;;;;;;38.20;22.10;;;;;;;5.40;90.30;100005.10;131208;1247;107529;-74
2023/01/10 11:39:16;;;;;;;38.00;21.80;;;;;;;5.42;90.11;100007.20;131158;1253;107558;-72
2023/01/10 11:42:30;;;;;;;39.60;23.00;;;;;;;5.40;90.15;100011.05;131201;1248;107429;-72
2023/01/10 11:45:36;;;;;;;33.50;18.80;;;;;;;5.37;90.26;100017.48;131178;1247;108090;-72
2023/01/10 11:48:49;;;;;;;30.60;17.40;;;;;;;5.35;90.03;100021.92;131240;1254;107517;-72
2023/01/10 11:52:00;;;;;;;35.90;21.20;;;;;;;5.36;90.37;100029.26;131349;1251;107429;-72
2023/01/10 11:55:09;;;;;;;36.30;21.30;;;;;;;5.41;89.78;100030.23;131296;1248;107537;-72
2023/01/10 11:58:15;;;;;;;37.40;22.80;;;;;;;5.45;90.07;100029.39;131409;1248;108649;-71
2023/01/10 12:01:35;;;;;;;36.70;20.50;;;;;;;5.50;90.43;100036.90;131190;1253;107424;-72
2023/01/10 12:04:45;;;;;;;33.40;20.50;;;;;;;5.58;90.32;100038.59;131156;1253;107372;-72
2023/01/10 12:08:00;;;;;;;32.50;19.10;;;;;;;5.60;90.23;100034.52;131335;1264;107508;-76
2023/01/10 12:11:08;;;;;;;30.90;17.50;;;;;;;5.66;90.47;100039.16;131143;1254;107470;-72
2023/01/10 12:14:20;;;;;;;35.10;19.70;;;;;;;5.76;90.05;100047.99;131250;1248;107525;-71
2023/01/10 12:17:32;;;;;;;33.10;19.80;;;;;;;5.84;89.71;100055.46;131232;1258;107512;-74
2023/01/10 12:20:49;;;;;;;36.90;21.20;;;;;;;5.90;89.35;100060.42;131357;1251;109318;-75
2023/01/10 12:24:10;;;;;;;34.60;20.80;;;;;;;5.83;88.60;100062.95;131331;1248;107525;-73
2023/01/10 12:27:20;;;;;;;35.90;20.90;;;;;;;5.75;88.67;100064.52;131171;1257;107247;-72
2023/01/10 12:30:32;;;;;;;31.80;18.30;;;;;;;5.61;88.55;100059.80;131462;1251;107526;-73
2023/01/10 12:33:45;;;;;;;32.60;18.90;;;;;;;5.51;88.84;100060.66;131299;1252;107552;-72
2023/01/10 12:37:05;;;;;;;33.10;20.10;;;;;;;5.45;89.09;100062.36;131200;1251;106883;-73
2023/01/10 12:40:16;;;;;;;37.90;22.30;;;;;;;5.48;89.04;100066.88;131277;1254;107647;-73
2023/01/10 12:46:56;;;;;;;40.60;24.40;;;;;;;5.44;89.01;100078.10;131294;1263;107597;-72
2023/01/10 12:50:07;;;;;;;70.00;40.50;;;;;;;5.39;88.79;100089.16;131171;1248;107343;-72
2023/01/10 12:53:23;;;;;;;36.60;20.70;;;;;;;5.39;89.31;100097.08;131199;1253;107544;-72
2023/01/10 12:56:30;;;;;;;33.10;21.00;;;;;;;5.37;89.14;100104.32;131113;1251;108159;-72
2023/01/10 12:59:39;;;;;;;34.00;20.30;;;;;;;5.35;89.11;100107.45;131137;1253;106694;-73
2023/01/10 13:02:49;;;;;;;38.90;25.40;;;;;;;5.40;89.44;100113.90;131178;1252;107449;-72
2023/01/10 13:05:56;;;;;;;35.70;22.80;;;;;;;5.44;89.23;100120.08;131395;1253;108686;-72
2023/01/10 13:09:08;;;;;;;59.10;27.90;;;;;;;5.44;89.04;100126.42;131335;1255;108645;-72
2023/01/10 13:12:20;;;;;;;55.50;26.90;;;;;;;5.43;89.35;100128.46;131230;1248;107701;-72
2023/01/10 13:15:30;;;;;;;36.80;21.90;;;;;;;5.41;89.21;100129.57;131210;1254;107353;-72
2023/01/10 13:18:35;;;;;;;52.10;25.30;;;;;;;5.43;89.52;100131.85;131342;1248;107506;-72
2023/01/10 13:21:42;;;;;;;45.10;24.60;;;;;;;5.48;89.30;100142.56;131393;1248;107419;-73
2023/01/10 13:24:59;;;;;;;42.00;24.50;;;;;;;5.52;89.41;100155.29;131186;1248;107519;-72
2023/01/10 13:28:14;;;;;;;55.90;27.40;;;;;;;5.56;89.66;100160.62;131151;1252;107449;-72
2023/01/10 13:31:28;;;;;;;49.70;26.40;;;;;;;5.57;89.14;100168.67;131229;1248;108690;-72
2023/01/10 13:34:36;;;;;;;55.00;28.30;;;;;;;5.53;89.19;100175.89;131168;1253;108637;-72
2023/01/10 13:37:44;;;;;;;47.40;24.70;;;;;;;5.45;89.55;100182.10;131302;1252;107604;-73
2023/01/10 13:41:03;;;;;;;54.50;25.80;;;;;;;5.40;89.34;100188.33;131202;1253;107614;-72
2023/01/10 13:44:12;;;;;;;46.70;25.10;;;;;;;5.40;89.61;100187.14;131384;1248;107301;-72
2023/01/10 13:47:57;;;;;;;42.70;23.90;;;;;;;5.46;89.83;100183.98;131361;1253;107363;-72
2023/01/10 13:51:17;;;;;;;43.20;23.70;;;;;;;5.50;89.77;100191.44;131246;1248;107475;-72
2023/01/10 13:54:29;;;;;;;42.20;24.80;;;;;;;5.51;89.89;100195.61;131290;1253;107540;-73
2023/01/10 13:57:59;;;;;;;43.50;24.60;;;;;;;5.52;89.82;100197.80;131097;1253;107559;-72
2023/01/10 14:04:52;;;;;;;38.80;22.50;;;;;;;5.46;90.00;100205.36;131345;1263;108014;-72
2023/01/10 14:07:57;;;;;;;41.70;24.60;;;;;;;5.46;90.08;100210.45;131471;1247;107220;-72
2023/01/10 14:11:09;;;;;;;54.50;32.20;;;;;;;5.48;89.96;100211.71;131364;1247;107499;-72
2023/01/10 14:14:22;;;;;;;77.50;44.10;;;;;;;5.49;89.98;100211.11;131495;1251;107142;-72
2023/01/10 14:17:30;;;;;;;63.70;36.60;;;;;;;5.49;89.89;100209.71;131462;1248;107364;-72
2023/01/10 14:20:36;;;;;;;71.00;39.40;;;;;;;5.47;90.06;100215.82;131463;1251;107458;-72
2023/01/10 14:23:48;;;;;;;55.90;30.70;;;;;;;5.47;89.97;100220.95;131459;1251;107480;-72
2023/01/10 14:26:55;;;;;;;82.70;45.30;;;;;;;5.45;89.78;100218.14;131230;1252;107539;-72